sensor_id;sensor_type;location;lat;lon;timestamp;P1;durP1;ratioP1;P2;durP2;ratioP2
70866;SDS011;58487;53.474;49.470;2023-02-22T00:00:43;13.43;;;4.47;;
70866;SDS011;58487;53.474;49.470;2023-02-22T00:03:13;11.63;;;4.85;;
70866;SDS011;58487;53.474;49.470;2023-02-22T00:05:42;13.67;;;6.40;;
70866;SDS011;58487;53.474;49.470;2023-02-22T00:08:13;9.50;;;4.32;;
70866;SDS011;58487;53.474;49.470;2023-02-22T00:10:40;14.90;;;5.43;;
70866;SDS011;58487;53.474;49.470;2023-02-22T00:13:07;12.77;;;5.32;;
70866;SDS011;58487;53.474;49.470;2023-02-22T00:15:35;11.93;;;4.78;;
70866;SDS011;58487;53.474;49.470;2023-02-22T00:18:01;18.30;;;6.57;;
70866;SDS011;58487;53.474;49.470;2023-02-22T00:20:28;12.45;;;5.78;;
70866;SDS011;58487;53.474;49.470;2023-02-22T00:22:55;13.50;;;5.30;;
70866;SDS011;58487;53.474;49.470;2023-02-22T00:25:22;15.00;;;6.50;;
70866;SDS011;58487;53.474;49.470;2023-02-22T00:27:49;14.27;;;6.63;;
70866;SDS011;58487;53.474;49.470;2023-02-22T00:30:27;11.80;;;5.70;;
70866;SDS011;58487;53.474;49.470;2023-02-22T00:32:56;14.13;;;6.40;;
70866;SDS011;58487;53.474;49.470;2023-02-22T00:35:27;14.07;;;5.53;;
70866;SDS011;58487;53.474;49.470;2023-02-22T00:37:55;15.25;;;7.03;;
70866;SDS011;58487;53.474;49.470;2023-02-22T00:40:27;12.82;;;5.82;;
70866;SDS011;58487;53.474;49.470;2023-02-22T00:42:59;12.70;;;5.33;;
70866;SDS011;58487;53.474;49.470;2023-02-22T00:45:27;15.93;;;6.20;;
70866;SDS011;58487;53.474;49.470;2023-02-22T00:47:54;14.32;;;6.68;;
70866;SDS011;58487;53.474;49.470;2023-02-22T00:50:22;15.43;;;6.13;;
70866;SDS011;58487;53.474;49.470;2023-02-22T00:52:49;13.80;;;5.82;;
70866;SDS011;58487;53.474;49.470;2023-02-22T00:55:17;15.20;;;5.73;;
70866;SDS011;58487;53.474;49.470;2023-02-22T00:57:55;12.02;;;5.22;;
70866;SDS011;58487;53.474;49.470;2023-02-22T01:00:24;14.93;;;5.82;;
70866;SDS011;58487;53.474;49.470;2023-02-22T01:02:52;14.40;;;5.65;;
70866;SDS011;58487;53.474;49.470;2023-02-22T01:05:19;11.65;;;4.70;;
70866;SDS011;58487;53.474;49.470;2023-02-22T01:07:47;15.63;;;5.97;;
70866;SDS011;58487;53.474;49.470;2023-02-22T01:10:14;10.15;;;4.72;;
70866;SDS011;58487;53.474;49.470;2023-02-22T01:12:44;12.52;;;5.90;;
70866;SDS011;58487;53.474;49.470;2023-02-22T01:15:11;12.20;;;4.82;;
70866;SDS011;58487;53.474;49.470;2023-02-22T01:17:38;12.65;;;5.13;;
70866;SDS011;58487;53.474;49.470;2023-02-22T01:20:05;12.77;;;5.80;;
70866;SDS011;58487;53.474;49.470;2023-02-22T01:22:39;15.13;;;5.85;;
70866;SDS011;58487;53.474;49.470;2023-02-22T01:25:10;11.73;;;5.20;;
70866;SDS011;58487;53.474;49.470;2023-02-22T01:27:37;12.07;;;4.80;;
70866;SDS011;58487;53.474;49.470;2023-02-22T01:30:04;11.68;;;4.80;;
70866;SDS011;58487;53.474;49.470;2023-02-22T01:32:36;11.33;;;5.07;;
70866;SDS011;58487;53.474;49.470;2023-02-22T01:35:04;11.75;;;5.22;;
70866;SDS011;58487;53.474;49.470;2023-02-22T01:37:34;14.73;;;5.60;;
70866;SDS011;58487;53.474;49.470;2023-02-22T01:40:00;15.93;;;5.82;;
70866;SDS011;58487;53.474;49.470;2023-02-22T01:42:28;14.57;;;5.20;;
70866;SDS011;58487;53.474;49.470;2023-02-22T01:48:04;13.15;;;5.32;;
70866;SDS011;58487;53.474;49.470;2023-02-22T01:50:46;15.20;;;5.60;;
70866;SDS011;58487;53.474;49.470;2023-02-22T01:53:19;13.10;;;4.88;;
70866;SDS011;58487;53.474;49.470;2023-02-22T01:55:49;12.95;;;5.07;;
70866;SDS011;58487;53.474;49.470;2023-02-22T01:58:17;14.07;;;6.17;;
70866;SDS011;58487;53.474;49.470;2023-02-22T02:00:45;12.30;;;5.25;;
70866;SDS011;58487;53.474;49.470;2023-02-22T02:03:13;12.10;;;4.38;;
70866;SDS011;58487;53.474;49.470;2023-02-22T02:05:44;13.35;;;5.28;;
70866;SDS011;58487;53.474;49.470;2023-02-22T02:08:26;10.40;;;4.57;;
70866;SDS011;58487;53.474;49.470;2023-02-22T02:10:53;13.80;;;4.93;;
70866;SDS011;58487;53.474;49.470;2023-02-22T02:13:23;10.07;;;3.72;;
70866;SDS011;58487;53.474;49.470;2023-02-22T02:15:52;11.40;;;4.38;;
70866;SDS011;58487;53.474;49.470;2023-02-22T02:18:19;12.50;;;4.85;;
70866;SDS011;58487;53.474;49.470;2023-02-22T02:20:50;10.05;;;4.30;;
70866;SDS011;58487;53.474;49.470;2023-02-22T02:29:54;15.80;;;4.20;;
70866;SDS011;58487;53.474;49.470;2023-02-22T02:32:41;7.82;;;3.55;;
70866;SDS011;58487;53.474;49.470;2023-02-22T02:48:52;8.15;;;2.58;;
70866;SDS011;58487;53.474;49.470;2023-02-22T02:51:22;9.70;;;4.20;;
70866;SDS011;58487;53.474;49.470;2023-02-22T02:53:52;11.63;;;4.35;;
70866;SDS011;58487;53.474;49.470;2023-02-22T02:56:20;9.50;;;3.70;;
70866;SDS011;58487;53.474;49.470;2023-02-22T02:58:49;11.20;;;4.20;;
70866;SDS011;58487;53.474;49.470;2023-02-22T03:03:53;9.93;;;4.13;;
70866;SDS011;58487;53.474;49.470;2023-02-22T03:14:55;12.77;;;4.43;;
70866;SDS011;58487;53.474;49.470;2023-02-22T03:20:29;12.13;;;4.38;;
70866;SDS011;58487;53.474;49.470;2023-02-22T03:23:12;12.10;;;5.70;;
70866;SDS011;58487;53.474;49.470;2023-02-22T03:25:42;7.95;;;3.38;;
70866;SDS011;58487;53.474;49.470;2023-02-22T03:28:15;7.47;;;3.33;;
70866;SDS011;58487;53.474;49.470;2023-02-22T03:31:05;10.57;;;4.63;;
70866;SDS011;58487;53.474;49.470;2023-02-22T03:33:39;11.73;;;5.25;;
70866;SDS011;58487;53.474;49.470;2023-02-22T03:36:11;8.48;;;3.35;;
70866;SDS011;58487;53.474;49.470;2023-02-22T03:38:38;8.38;;;3.63;;
70866;SDS011;58487;53.474;49.470;2023-02-22T03:41:06;10.40;;;4.25;;
70866;SDS011;58487;53.474;49.470;2023-02-22T03:43:35;6.90;;;2.47;;
70866;SDS011;58487;53.474;49.470;2023-02-22T03:46:06;9.63;;;4.50;;
70866;SDS011;58487;53.474;49.470;2023-02-22T03:48:37;12.50;;;4.95;;
70866;SDS011;58487;53.474;49.470;2023-02-22T03:51:09;13.05;;;4.55;;
70866;SDS011;58487;53.474;49.470;2023-02-22T03:53:39;9.98;;;3.42;;
70866;SDS011;58487;53.474;49.470;2023-02-22T03:56:06;8.43;;;3.03;;
70866;SDS011;58487;53.474;49.470;2023-02-22T03:58:36;11.23;;;4.75;;
70866;SDS011;58487;53.474;49.470;2023-02-22T04:01:03;14.32;;;5.80;;
70866;SDS011;58487;53.474;49.470;2023-02-22T04:03:29;13.73;;;6.00;;
70866;SDS011;58487;53.474;49.470;2023-02-22T04:05:55;16.27;;;6.00;;
70866;SDS011;58487;53.474;49.470;2023-02-22T04:08:22;17.37;;;6.83;;
70866;SDS011;58487;53.474;49.470;2023-02-22T04:10:48;14.30;;;5.75;;
70866;SDS011;58487;53.474;49.470;2023-02-22T04:13:14;14.57;;;6.65;;
70866;SDS011;58487;53.474;49.470;2023-02-22T04:15:41;14.82;;;6.13;;
70866;SDS011;58487;53.474;49.470;2023-02-22T04:18:07;16.02;;;6.47;;
70866;SDS011;58487;53.474;49.470;2023-02-22T04:20:33;9.63;;;3.97;;
70866;SDS011;58487;53.474;49.470;2023-02-22T04:22:59;7.03;;;2.92;;
70866;SDS011;58487;53.474;49.470;2023-02-22T04:25:25;10.63;;;3.60;;
70866;SDS011;58487;53.474;49.470;2023-02-22T04:27:51;12.65;;;5.75;;
70866;SDS011;58487;53.474;49.470;2023-02-22T04:30:18;14.65;;;6.00;;
70866;SDS011;58487;53.474;49.470;2023-02-22T04:32:45;10.70;;;4.30;;
70866;SDS011;58487;53.474;49.470;2023-02-22T04:35:11;14.20;;;6.20;;
70866;SDS011;58487;53.474;49.470;2023-02-22T04:37:37;5.60;;;2.15;;
70866;SDS011;58487;53.474;49.470;2023-02-22T04:40:03;11.45;;;4.35;;
70866;SDS011;58487;53.474;49.470;2023-02-22T04:42:33;9.65;;;4.38;;
70866;SDS011;58487;53.474;49.470;2023-02-22T04:45:00;8.77;;;3.43;;
70866;SDS011;58487;53.474;49.470;2023-02-22T04:47:26;10.65;;;4.18;;
70866;SDS011;58487;53.474;49.470;2023-02-22T04:49:52;6.25;;;2.78;;
70866;SDS011;58487;53.474;49.470;2023-02-22T04:52:18;10.38;;;4.32;;
70866;SDS011;58487;53.474;49.470;2023-02-22T04:54:44;9.85;;;4.28;;
70866;SDS011;58487;53.474;49.470;2023-02-22T04:57:11;9.43;;;4.10;;
70866;SDS011;58487;53.474;49.470;2023-02-22T04:59:37;11.52;;;4.68;;
70866;SDS011;58487;53.474;49.470;2023-02-22T05:02:03;8.25;;;3.40;;
70866;SDS011;58487;53.474;49.470;2023-02-22T05:04:29;15.95;;;3.80;;
70866;SDS011;58487;53.474;49.470;2023-02-22T05:06:55;12.15;;;3.10;;
70866;SDS011;58487;53.474;49.470;2023-02-22T05:09:21;6.43;;;2.43;;
70866;SDS011;58487;53.474;49.470;2023-02-22T05:11:47;8.40;;;3.40;;
70866;SDS011;58487;53.474;49.470;2023-02-22T05:14:13;9.55;;;3.85;;
70866;SDS011;58487;53.474;49.470;2023-02-22T05:16:39;10.45;;;4.07;;
70866;SDS011;58487;53.474;49.470;2023-02-22T05:19:05;7.90;;;3.17;;
70866;SDS011;58487;53.474;49.470;2023-02-22T05:21:32;7.90;;;3.17;;
70866;SDS011;58487;53.474;49.470;2023-02-22T05:23:58;9.38;;;3.83;;
70866;SDS011;58487;53.474;49.470;2023-02-22T05:26:24;5.13;;;1.65;;
70866;SDS011;58487;53.474;49.470;2023-02-22T05:28:50;7.82;;;2.92;;
70866;SDS011;58487;53.474;49.470;2023-02-22T05:31:16;7.68;;;3.55;;
70866;SDS011;58487;53.474;49.470;2023-02-22T05:33:42;10.00;;;3.43;;
70866;SDS011;58487;53.474;49.470;2023-02-22T05:36:08;11.27;;;4.82;;
70866;SDS011;58487;53.474;49.470;2023-02-22T05:38:35;5.78;;;1.98;;
70866;SDS011;58487;53.474;49.470;2023-02-22T05:41:08;6.57;;;2.92;;
70866;SDS011;58487;53.474;49.470;2023-02-22T05:43:38;11.25;;;3.30;;
70866;SDS011;58487;53.474;49.470;2023-02-22T05:46:05;9.10;;;3.43;;
70866;SDS011;58487;53.474;49.470;2023-02-22T05:48:32;6.35;;;2.65;;
70866;SDS011;58487;53.474;49.470;2023-02-22T05:50:58;8.05;;;2.28;;
70866;SDS011;58487;53.474;49.470;2023-02-22T05:53:24;7.95;;;3.35;;
70866;SDS011;58487;53.474;49.470;2023-02-22T05:55:50;6.93;;;3.00;;
70866;SDS011;58487;53.474;49.470;2023-02-22T05:58:16;6.60;;;2.70;;
70866;SDS011;58487;53.474;49.470;2023-02-22T06:00:43;5.93;;;2.20;;
70866;SDS011;58487;53.474;49.470;2023-02-22T06:03:09;5.22;;;1.85;;
70866;SDS011;58487;53.474;49.470;2023-02-22T06:05:37;7.78;;;3.00;;
70866;SDS011;58487;53.474;49.470;2023-02-22T06:08:04;7.55;;;3.53;;
70866;SDS011;58487;53.474;49.470;2023-02-22T06:10:31;7.50;;;2.67;;
70866;SDS011;58487;53.474;49.470;2023-02-22T06:12:57;7.00;;;2.78;;
70866;SDS011;58487;53.474;49.470;2023-02-22T06:15:25;4.57;;;2.03;;
70866;SDS011;58487;53.474;49.470;2023-02-22T06:17:52;9.30;;;3.67;;
70866;SDS011;58487;53.474;49.470;2023-02-22T06:20:20;7.30;;;2.83;;
70866;SDS011;58487;53.474;49.470;2023-02-22T06:22:48;9.33;;;4.40;;
70866;SDS011;58487;53.474;49.470;2023-02-22T06:25:16;6.15;;;2.55;;
70866;SDS011;58487;53.474;49.470;2023-02-22T06:27:44;4.57;;;1.67;;
70866;SDS011;58487;53.474;49.470;2023-02-22T06:30:10;7.03;;;2.75;;
70866;SDS011;58487;53.474;49.470;2023-02-22T06:32:37;5.15;;;1.85;;
70866;SDS011;58487;53.474;49.470;2023-02-22T06:35:03;8.20;;;3.67;;
70866;SDS011;58487;53.474;49.470;2023-02-22T06:37:30;10.80;;;3.63;;
70866;SDS011;58487;53.474;49.470;2023-02-22T06:39:56;6.75;;;2.60;;
70866;SDS011;58487;53.474;49.470;2023-02-22T06:42:22;7.63;;;2.80;;
70866;SDS011;58487;53.474;49.470;2023-02-22T06:44:48;7.15;;;2.97;;
70866;SDS011;58487;53.474;49.470;2023-02-22T06:47:14;8.23;;;3.37;;
70866;SDS011;58487;53.474;49.470;2023-02-22T06:49:40;7.00;;;2.83;;
70866;SDS011;58487;53.474;49.470;2023-02-22T06:52:07;6.35;;;2.38;;
70866;SDS011;58487;53.474;49.470;2023-02-22T06:54:34;4.40;;;1.80;;
70866;SDS011;58487;53.474;49.470;2023-02-22T06:57:01;6.55;;;2.78;;
70866;SDS011;58487;53.474;49.470;2023-02-22T06:59:27;6.00;;;2.17;;
70866;SDS011;58487;53.474;49.470;2023-02-22T07:01:53;7.68;;;3.20;;
70866;SDS011;58487;53.474;49.470;2023-02-22T07:04:20;7.85;;;3.13;;
70866;SDS011;58487;53.474;49.470;2023-02-22T07:06:46;6.13;;;2.22;;
70866;SDS011;58487;53.474;49.470;2023-02-22T07:09:13;8.18;;;3.10;;
70866;SDS011;58487;53.474;49.470;2023-02-22T07:11:41;5.30;;;2.40;;
70866;SDS011;58487;53.474;49.470;2023-02-22T07:14:07;6.10;;;2.35;;
70866;SDS011;58487;53.474;49.470;2023-02-22T07:16:34;5.95;;;2.25;;
70866;SDS011;58487;53.474;49.470;2023-02-22T07:19:00;6.25;;;2.33;;
70866;SDS011;58487;53.474;49.470;2023-02-22T07:21:27;10.32;;;3.00;;
70866;SDS011;58487;53.474;49.470;2023-02-22T07:23:55;4.03;;;1.53;;
70866;SDS011;58487;53.474;49.470;2023-02-22T07:26:23;6.75;;;2.40;;
70866;SDS011;58487;53.474;49.470;2023-02-22T07:28:50;5.63;;;2.15;;
70866;SDS011;58487;53.474;49.470;2023-02-22T07:31:17;6.05;;;2.45;;
70866;SDS011;58487;53.474;49.470;2023-02-22T07:33:44;6.55;;;3.13;;
70866;SDS011;58487;53.474;49.470;2023-02-22T07:36:11;8.67;;;3.53;;
70866;SDS011;58487;53.474;49.470;2023-02-22T07:38:39;17.80;;;3.53;;
70866;SDS011;58487;53.474;49.470;2023-02-22T07:41:05;14.57;;;4.18;;
70866;SDS011;58487;53.474;49.470;2023-02-22T07:43:31;7.75;;;3.40;;
70866;SDS011;58487;53.474;49.470;2023-02-22T07:45:58;8.57;;;3.00;;
70866;SDS011;58487;53.474;49.470;2023-02-22T07:48:27;13.93;;;4.50;;
70866;SDS011;58487;53.474;49.470;2023-02-22T07:50:55;6.25;;;3.00;;
70866;SDS011;58487;53.474;49.470;2023-02-22T07:53:23;5.18;;;2.35;;
70866;SDS011;58487;53.474;49.470;2023-02-22T07:55:58;8.88;;;4.25;;
70866;SDS011;58487;53.474;49.470;2023-02-22T07:58:26;6.78;;;2.63;;
70866;SDS011;58487;53.474;49.470;2023-02-22T08:00:55;5.17;;;1.77;;
70866;SDS011;58487;53.474;49.470;2023-02-22T08:03:22;4.97;;;2.28;;
70866;SDS011;58487;53.474;49.470;2023-02-22T08:05:50;4.55;;;1.90;;
70866;SDS011;58487;53.474;49.470;2023-02-22T08:08:18;6.72;;;3.05;;
70866;SDS011;58487;53.474;49.470;2023-02-22T08:10:45;7.65;;;3.72;;
70866;SDS011;58487;53.474;49.470;2023-02-22T08:13:12;9.70;;;2.73;;
70866;SDS011;58487;53.474;49.470;2023-02-22T08:15:38;7.00;;;2.47;;
70866;SDS011;58487;53.474;49.470;2023-02-22T08:18:10;8.57;;;3.03;;
70866;SDS011;58487;53.474;49.470;2023-02-22T08:20:39;9.02;;;4.28;;
70866;SDS011;58487;53.474;49.470;2023-02-22T08:23:06;5.25;;;1.85;;
70866;SDS011;58487;53.474;49.470;2023-02-22T08:25:33;6.57;;;2.57;;
70866;SDS011;58487;53.474;49.470;2023-02-22T08:28:01;8.52;;;3.50;;
70866;SDS011;58487;53.474;49.470;2023-02-22T08:30:30;9.25;;;4.28;;
70866;SDS011;58487;53.474;49.470;2023-02-22T08:32:57;5.05;;;2.28;;
70866;SDS011;58487;53.474;49.470;2023-02-22T08:35:24;7.75;;;2.97;;
70866;SDS011;58487;53.474;49.470;2023-02-22T08:37:52;5.10;;;2.73;;
70866;SDS011;58487;53.474;49.470;2023-02-22T08:40:24;4.53;;;1.92;;
70866;SDS011;58487;53.474;49.470;2023-02-22T08:42:52;9.63;;;3.30;;
70866;SDS011;58487;53.474;49.470;2023-02-22T08:45:18;11.25;;;4.63;;
70866;SDS011;58487;53.474;49.470;2023-02-22T08:47:45;6.10;;;2.28;;
70866;SDS011;58487;53.474;49.470;2023-02-22T08:50:18;6.73;;;2.77;;
70866;SDS011;58487;53.474;49.470;2023-02-22T08:52:48;8.60;;;2.67;;
70866;SDS011;58487;53.474;49.470;2023-02-22T08:55:19;6.80;;;3.28;;
70866;SDS011;58487;53.474;49.470;2023-02-22T08:57:50;5.30;;;2.45;;
70866;SDS011;58487;53.474;49.470;2023-02-22T09:00:19;6.55;;;2.47;;
70866;SDS011;58487;53.474;49.470;2023-02-22T09:02:49;6.30;;;3.00;;
70866;SDS011;58487;53.474;49.470;2023-02-22T09:05:15;6.45;;;3.17;;
70866;SDS011;58487;53.474;49.470;2023-02-22T09:07:42;8.02;;;3.72;;
70866;SDS011;58487;53.474;49.470;2023-02-22T09:10:10;8.75;;;4.68;;
70866;SDS011;58487;53.474;49.470;2023-02-22T09:12:40;7.72;;;3.05;;
70866;SDS011;58487;53.474;49.470;2023-02-22T09:15:06;7.23;;;2.40;;
70866;SDS011;58487;53.474;49.470;2023-02-22T09:17:33;17.48;;;4.72;;
70866;SDS011;58487;53.474;49.470;2023-02-22T09:20:03;7.80;;;3.40;;
70866;SDS011;58487;53.474;49.470;2023-02-22T09:22:30;7.20;;;2.55;;
70866;SDS011;58487;53.474;49.470;2023-02-22T09:24:56;11.98;;;5.32;;
70866;SDS011;58487;53.474;49.470;2023-02-22T09:27:22;10.87;;;5.60;;
70866;SDS011;58487;53.474;49.470;2023-02-22T09:29:48;8.05;;;3.50;;
70866;SDS011;58487;53.474;49.470;2023-02-22T09:32:15;6.25;;;2.60;;
70866;SDS011;58487;53.474;49.470;2023-02-22T09:34:42;16.25;;;5.30;;
70866;SDS011;58487;53.474;49.470;2023-02-22T09:37:12;10.32;;;4.78;;
70866;SDS011;58487;53.474;49.470;2023-02-22T09:39:38;19.07;;;5.80;;
70866;SDS011;58487;53.474;49.470;2023-02-22T09:42:26;8.30;;;3.65;;
70866;SDS011;58487;53.474;49.470;2023-02-22T09:45:11;14.73;;;4.90;;
70866;SDS011;58487;53.474;49.470;2023-02-22T09:47:48;7.45;;;3.13;;
70866;SDS011;58487;53.474;49.470;2023-02-22T09:50:34;9.02;;;3.33;;
70866;SDS011;58487;53.474;49.470;2023-02-22T09:56:00;7.90;;;3.45;;
70866;SDS011;58487;53.474;49.470;2023-02-22T09:58:35;5.15;;;2.30;;
70866;SDS011;58487;53.474;49.470;2023-02-22T10:04:04;6.90;;;3.00;;
70866;SDS011;58487;53.474;49.470;2023-02-22T10:06:46;8.13;;;4.07;;
70866;SDS011;58487;53.474;49.470;2023-02-22T10:09:17;8.13;;;3.25;;
70866;SDS011;58487;53.474;49.470;2023-02-22T10:20:41;4.23;;;1.67;;
70866;SDS011;58487;53.474;49.470;2023-02-22T10:25:25;7.75;;;3.17;;
70866;SDS011;58487;53.474;49.470;2023-02-22T10:27:55;6.82;;;2.95;;
70866;SDS011;58487;53.474;49.470;2023-02-22T10:30:35;6.35;;;2.70;;
70866;SDS011;58487;53.474;49.470;2023-02-22T10:33:11;7.40;;;3.17;;
70866;SDS011;58487;53.474;49.470;2023-02-22T10:35:45;8.20;;;3.55;;
70866;SDS011;58487;53.474;49.470;2023-02-22T10:40:47;6.03;;;2.70;;
70866;SDS011;58487;53.474;49.470;2023-02-22T10:43:17;7.28;;;3.30;;
70866;SDS011;58487;53.474;49.470;2023-02-22T10:45:44;9.07;;;4.37;;
70866;SDS011;58487;53.474;49.470;2023-02-22T10:48:14;6.63;;;2.83;;
70866;SDS011;58487;53.474;49.470;2023-02-22T10:50:43;11.52;;;3.88;;
70866;SDS011;58487;53.474;49.470;2023-02-22T10:53:11;9.55;;;3.97;;
70866;SDS011;58487;53.474;49.470;2023-02-22T11:04:04;4.30;;;1.88;;
70866;SDS011;58487;53.474;49.470;2023-02-22T11:06:42;8.90;;;3.20;;
70866;SDS011;58487;53.474;49.470;2023-02-22T11:09:12;13.60;;;5.57;;
70866;SDS011;58487;53.474;49.470;2023-02-22T11:11:46;12.83;;;5.10;;
70866;SDS011;58487;53.474;49.470;2023-02-22T11:14:28;11.23;;;4.85;;
70866;SDS011;58487;53.474;49.470;2023-02-22T11:16:56;15.68;;;6.88;;
70866;SDS011;58487;53.474;49.470;2023-02-22T11:19:24;21.25;;;8.15;;
70866;SDS011;58487;53.474;49.470;2023-02-22T11:21:56;9.35;;;4.13;;
70866;SDS011;58487;53.474;49.470;2023-02-22T11:24:23;12.87;;;5.13;;
70866;SDS011;58487;53.474;49.470;2023-02-22T11:26:55;9.52;;;4.47;;
70866;SDS011;58487;53.474;49.470;2023-02-22T11:29:26;11.25;;;4.50;;
70866;SDS011;58487;53.474;49.470;2023-02-22T11:31:57;21.50;;;9.27;;
70866;SDS011;58487;53.474;49.470;2023-02-22T11:34:36;9.30;;;3.30;;
70866;SDS011;58487;53.474;49.470;2023-02-22T11:40:05;12.38;;;5.25;;
70866;SDS011;58487;53.474;49.470;2023-02-22T11:42:44;9.15;;;3.50;;
70866;SDS011;58487;53.474;49.470;2023-02-22T11:45:18;12.30;;;4.90;;
70866;SDS011;58487;53.474;49.470;2023-02-22T11:50:30;7.40;;;3.17;;
70866;SDS011;58487;53.474;49.470;2023-02-22T11:55:58;8.00;;;2.97;;
70866;SDS011;58487;53.474;49.470;2023-02-22T11:58:46;7.05;;;2.95;;
70866;SDS011;58487;53.474;49.470;2023-02-22T12:03:59;7.00;;;2.50;;
70866;SDS011;58487;53.474;49.470;2023-02-22T12:12:46;12.02;;;5.85;;
70866;SDS011;58487;53.474;49.470;2023-02-22T12:18:05;5.33;;;2.23;;
70866;SDS011;58487;53.474;49.470;2023-02-22T12:20:44;7.20;;;3.33;;
70866;SDS011;58487;53.474;49.470;2023-02-22T12:23:17;11.98;;;3.20;;
70866;SDS011;58487;53.474;49.470;2023-02-22T12:25:55;8.30;;;2.88;;
70866;SDS011;58487;53.474;49.470;2023-02-22T12:28:32;8.02;;;3.00;;
70866;SDS011;58487;53.474;49.470;2023-02-22T12:31:24;13.77;;;5.47;;
70866;SDS011;58487;53.474;49.470;2023-02-22T12:34:07;11.35;;;3.60;;
70866;SDS011;58487;53.474;49.470;2023-02-22T12:36:42;9.00;;;3.78;;
70866;SDS011;58487;53.474;49.470;2023-02-22T12:42:19;8.75;;;3.25;;
70866;SDS011;58487;53.474;49.470;2023-02-22T12:45:01;13.33;;;5.13;;
70866;SDS011;58487;53.474;49.470;2023-02-22T12:47:33;12.65;;;5.15;;
70866;SDS011;58487;53.474;49.470;2023-02-22T12:50:09;10.77;;;4.60;;
70866;SDS011;58487;53.474;49.470;2023-02-22T12:53:02;9.82;;;4.63;;
70866;SDS011;58487;53.474;49.470;2023-02-22T12:59:00;9.07;;;3.57;;
70866;SDS011;58487;53.474;49.470;2023-02-22T13:01:38;10.20;;;4.75;;
70866;SDS011;58487;53.474;49.470;2023-02-22T13:04:09;13.63;;;3.92;;
70866;SDS011;58487;53.474;49.470;2023-02-22T13:09:30;17.50;;;6.80;;
70866;SDS011;58487;53.474;49.470;2023-02-22T13:17:34;11.23;;;4.90;;
70866;SDS011;58487;53.474;49.470;2023-02-22T13:20:25;14.63;;;6.05;;
70866;SDS011;58487;53.474;49.470;2023-02-22T13:23:04;8.18;;;3.80;;
70866;SDS011;58487;53.474;49.470;2023-02-22T13:25:41;16.53;;;6.80;;
70866;SDS011;58487;53.474;49.470;2023-02-22T13:28:38;20.50;;;8.40;;
70866;SDS011;58487;53.474;49.470;2023-02-22T13:36:52;17.02;;;5.47;;
70866;SDS011;58487;53.474;49.470;2023-02-22T13:52:42;16.70;;;6.23;;
70866;SDS011;58487;53.474;49.470;2023-02-22T13:55:15;20.92;;;7.78;;
70866;SDS011;58487;53.474;49.470;2023-02-22T13:57:45;18.15;;;5.97;;
70866;SDS011;58487;53.474;49.470;2023-02-22T14:02:57;14.98;;;6.38;;
70866;SDS011;58487;53.474;49.470;2023-02-22T14:13:22;20.80;;;8.43;;
70866;SDS011;58487;53.474;49.470;2023-02-22T14:18:27;17.77;;;7.60;;
70866;SDS011;58487;53.474;49.470;2023-02-22T14:21:11;28.55;;;10.85;;
70866;SDS011;58487;53.474;49.470;2023-02-22T14:23:49;24.15;;;9.88;;
70866;SDS011;58487;53.474;49.470;2023-02-22T14:28:55;20.50;;;7.75;;
70866;SDS011;58487;53.474;49.470;2023-02-22T14:31:52;19.17;;;7.50;;
70866;SDS011;58487;53.474;49.470;2023-02-22T14:37:06;11.75;;;4.57;;
70866;SDS011;58487;53.474;49.470;2023-02-22T14:39:40;22.58;;;9.88;;
70866;SDS011;58487;53.474;49.470;2023-02-22T14:42:17;18.27;;;7.00;;
70866;SDS011;58487;53.474;49.470;2023-02-22T14:47:36;23.60;;;9.32;;
70866;SDS011;58487;53.474;49.470;2023-02-22T14:50:51;15.88;;;6.78;;
70866;SDS011;58487;53.474;49.470;2023-02-22T14:53:02;24.67;;;9.55;;
70866;SDS011;58487;53.474;49.470;2023-02-22T14:55:33;13.90;;;6.07;;
70866;SDS011;58487;53.474;49.470;2023-02-22T15:00:44;24.65;;;9.93;;
70866;SDS011;58487;53.474;49.470;2023-02-22T15:03:16;16.17;;;6.72;;
70866;SDS011;58487;53.474;49.470;2023-02-22T15:06:05;12.35;;;4.55;;
70866;SDS011;58487;53.474;49.470;2023-02-22T15:08:46;23.63;;;8.38;;
70866;SDS011;58487;53.474;49.470;2023-02-22T15:11:22;22.37;;;9.70;;
70866;SDS011;58487;53.474;49.470;2023-02-22T15:13:51;19.58;;;7.53;;
70866;SDS011;58487;53.474;49.470;2023-02-22T15:16:19;22.60;;;7.85;;
70866;SDS011;58487;53.474;49.470;2023-02-22T15:18:57;21.70;;;6.72;;
70866;SDS011;58487;53.474;49.470;2023-02-22T15:21:26;17.38;;;7.45;;
70866;SDS011;58487;53.474;49.470;2023-02-22T15:23:54;27.00;;;10.00;;
70866;SDS011;58487;53.474;49.470;2023-02-22T15:26:30;19.98;;;8.40;;
70866;SDS011;58487;53.474;49.470;2023-02-22T15:29:17;19.63;;;7.57;;
70866;SDS011;58487;53.474;49.470;2023-02-22T15:31:47;14.25;;;4.78;;
70866;SDS011;58487;53.474;49.470;2023-02-22T15:36:40;20.17;;;9.10;;
70866;SDS011;58487;53.474;49.470;2023-02-22T15:39:30;18.45;;;7.40;;
70866;SDS011;58487;53.474;49.470;2023-02-22T15:44:51;16.95;;;7.97;;
70866;SDS011;58487;53.474;49.470;2023-02-22T15:47:20;20.70;;;8.43;;
70866;SDS011;58487;53.474;49.470;2023-02-22T15:55:34;20.80;;;8.23;;
70866;SDS011;58487;53.474;49.470;2023-02-22T15:58:18;30.85;;;10.40;;
70866;SDS011;58487;53.474;49.470;2023-02-22T16:00:50;27.73;;;9.33;;
70866;SDS011;58487;53.474;49.470;2023-02-22T16:03:22;22.95;;;7.30;;
70866;SDS011;58487;53.474;49.470;2023-02-22T16:05:52;20.13;;;7.88;;
70866;SDS011;58487;53.474;49.470;2023-02-22T16:08:22;20.58;;;7.22;;
70866;SDS011;58487;53.474;49.470;2023-02-22T16:10:58;17.08;;;6.18;;
70866;SDS011;58487;53.474;49.470;2023-02-22T16:13:28;22.60;;;9.40;;
70866;SDS011;58487;53.474;49.470;2023-02-22T16:16:02;18.30;;;7.13;;
70866;SDS011;58487;53.474;49.470;2023-02-22T16:18:31;19.45;;;7.03;;
70866;SDS011;58487;53.474;49.470;2023-02-22T16:21:04;18.27;;;7.55;;
70866;SDS011;58487;53.474;49.470;2023-02-22T16:23:45;22.98;;;8.13;;
70866;SDS011;58487;53.474;49.470;2023-02-22T16:28:53;23.20;;;7.40;;
70866;SDS011;58487;53.474;49.470;2023-02-22T16:31:28;22.08;;;8.27;;
70866;SDS011;58487;53.474;49.470;2023-02-22T16:33:58;23.70;;;9.07;;
70866;SDS011;58487;53.474;49.470;2023-02-22T16:36:41;25.08;;;8.98;;
70866;SDS011;58487;53.474;49.470;2023-02-22T16:39:13;15.50;;;5.90;;
70866;SDS011;58487;53.474;49.470;2023-02-22T16:41:47;15.38;;;6.55;;
70866;SDS011;58487;53.474;49.470;2023-02-22T16:44:17;23.52;;;8.07;;
70866;SDS011;58487;53.474;49.470;2023-02-22T16:46:43;23.17;;;7.43;;
70866;SDS011;58487;53.474;49.470;2023-02-22T16:49:10;14.27;;;5.00;;
70866;SDS011;58487;53.474;49.470;2023-02-22T16:51:39;15.63;;;6.93;;
70866;SDS011;58487;53.474;49.470;2023-02-22T16:54:18;16.42;;;7.18;;
70866;SDS011;58487;53.474;49.470;2023-02-22T16:56:48;22.08;;;9.45;;
70866;SDS011;58487;53.474;49.470;2023-02-22T16:59:15;17.17;;;5.55;;
70866;SDS011;58487;53.474;49.470;2023-02-22T17:01:42;24.92;;;9.65;;
70866;SDS011;58487;53.474;49.470;2023-02-22T17:04:12;22.93;;;6.73;;
70866;SDS011;58487;53.474;49.470;2023-02-22T17:06:48;15.55;;;6.35;;
70866;SDS011;58487;53.474;49.470;2023-02-22T17:09:14;28.08;;;10.85;;
70866;SDS011;58487;53.474;49.470;2023-02-22T17:11:41;27.58;;;9.15;;
70866;SDS011;58487;53.474;49.470;2023-02-22T17:14:08;22.92;;;9.45;;
70866;SDS011;58487;53.474;49.470;2023-02-22T17:16:41;22.43;;;7.90;;
70866;SDS011;58487;53.474;49.470;2023-02-22T17:19:14;18.35;;;7.55;;
70866;SDS011;58487;53.474;49.470;2023-02-22T17:21:41;17.73;;;6.50;;